sensor_id;sensor_type;location;lat;lon;timestamp;pressure;altitude;pressure_sealevel;temperature;humidity
59939;BME280;45801;51.810;19.444;2023-12-20T00:01:55;98339.25;;;6.12;84.20
59939;BME280;45801;51.810;19.444;2023-12-20T00:04:22;98337.94;;;6.09;84.27
59939;BME280;45801;51.810;19.444;2023-12-20T00:06:48;98336.91;;;6.14;83.63
59939;BME280;45801;51.810;19.444;2023-12-20T00:09:15;98333.39;;;6.13;84.46
59939;BME280;45801;51.810;19.444;2023-12-20T00:11:41;98333.52;;;6.15;84.02
59939;BME280;45801;51.810;19.444;2023-12-20T00:14:08;98331.59;;;6.15;84.05
59939;BME280;45801;51.810;19.444;2023-12-20T00:16:35;98330.40;;;6.12;84.11
59939;BME280;45801;51.810;19.444;2023-12-20T00:19:01;98331.50;;;6.13;83.60
59939;BME280;45801;51.810;19.444;2023-12-20T00:21:28;98328.33;;;6.12;83.73
59939;BME280;45801;51.810;19.444;2023-12-20T00:23:54;98323.14;;;6.12;83.91
59939;BME280;45801;51.810;19.444;2023-12-20T00:26:21;98321.36;;;6.08;84.22
59939;BME280;45801;51.810;19.444;2023-12-20T00:28:47;98322.36;;;6.03;84.90
59939;BME280;45801;51.810;19.444;2023-12-20T00:31:14;98321.29;;;6.11;83.89
59939;BME280;45801;51.810;19.444;2023-12-20T00:33:40;98317.84;;;6.07;84.90
59939;BME280;45801;51.810;19.444;2023-12-20T00:36:09;98316.95;;;5.95;85.50
59939;BME280;45801;51.810;19.444;2023-12-20T00:38:36;98314.96;;;5.91;85.73
59939;BME280;45801;51.810;19.444;2023-12-20T00:41:03;98313.70;;;5.97;85.39
59939;BME280;45801;51.810;19.444;2023-12-20T00:43:29;98303.48;;;6.01;85.11
59939;BME280;45801;51.810;19.444;2023-12-20T00:45:56;98309.95;;;6.13;85.50
59939;BME280;45801;51.810;19.444;2023-12-20T00:48:23;98306.72;;;6.31;85.02
59939;BME280;45801;51.810;19.444;2023-12-20T00:50:50;98299.45;;;6.51;83.98
59939;BME280;45801;51.810;19.444;2023-12-20T00:53:16;98299.52;;;6.56;83.11
59939;BME280;45801;51.810;19.444;2023-12-20T00:55:43;98294.06;;;6.59;83.01
59939;BME280;45801;51.810;19.444;2023-12-20T00:58:11;98297.55;;;6.51;83.44
59939;BME280;45801;51.810;19.444;2023-12-20T01:00:38;98288.27;;;6.53;83.19
59939;BME280;45801;51.810;19.444;2023-12-20T01:03:04;98288.46;;;6.58;82.94
59939;BME280;45801;51.810;19.444;2023-12-20T01:05:31;98298.29;;;6.52;83.35
59939;BME280;45801;51.810;19.444;2023-12-20T01:07:57;98300.04;;;6.44;83.95
59939;BME280;45801;51.810;19.444;2023-12-20T01:10:24;98300.43;;;6.37;84.52
59939;BME280;45801;51.810;19.444;2023-12-20T01:12:54;98301.29;;;6.37;84.91
59939;BME280;45801;51.810;19.444;2023-12-20T01:15:21;98295.23;;;6.34;85.17
59939;BME280;45801;51.810;19.444;2023-12-20T01:17:47;98292.77;;;6.41;84.44
59939;BME280;45801;51.810;19.444;2023-12-20T01:20:15;98292.72;;;6.40;84.28
59939;BME280;45801;51.810;19.444;2023-12-20T01:22:43;98291.23;;;6.38;84.91
59939;BME280;45801;51.810;19.444;2023-12-20T01:25:12;98288.67;;;6.39;84.79
59939;BME280;45801;51.810;19.444;2023-12-20T01:27:38;98291.52;;;6.36;84.94
59939;BME280;45801;51.810;19.444;2023-12-20T01:30:06;98289.06;;;6.24;85.73
59939;BME280;45801;51.810;19.444;2023-12-20T01:32:32;98283.91;;;6.30;85.39
59939;BME280;45801;51.810;19.444;2023-12-20T01:34:59;98281.15;;;6.30;85.45
59939;BME280;45801;51.810;19.444;2023-12-20T01:37:25;98281.35;;;6.31;85.78
59939;BME280;45801;51.810;19.444;2023-12-20T01:39:53;98280.00;;;6.36;85.28
59939;BME280;45801;51.810;19.444;2023-12-20T01:42:19;98270.95;;;6.32;85.66
59939;BME280;45801;51.810;19.444;2023-12-20T01:44:46;98260.23;;;6.21;86.34
59939;BME280;45801;51.810;19.444;2023-12-20T01:47:14;98257.24;;;6.21;86.81
59939;BME280;45801;51.810;19.444;2023-12-20T01:49:41;98255.48;;;6.24;86.37
59939;BME280;45801;51.810;19.444;2023-12-20T01:52:07;98261.39;;;6.28;85.98
59939;BME280;45801;51.810;19.444;2023-12-20T01:54:35;98260.33;;;6.35;85.15
59939;BME280;45801;51.810;19.444;2023-12-20T01:57:02;98252.66;;;6.43;84.75
59939;BME280;45801;51.810;19.444;2023-12-20T01:59:30;98249.21;;;6.48;84.67
59939;BME280;45801;51.810;19.444;2023-12-20T02:01:57;98242.23;;;6.51;84.33
59939;BME280;45801;51.810;19.444;2023-12-20T02:04:25;98235.50;;;6.52;84.55
59939;BME280;45801;51.810;19.444;2023-12-20T02:06:52;98233.89;;;6.47;84.74
59939;BME280;45801;51.810;19.444;2023-12-20T02:09:19;98237.66;;;6.46;84.69
59939;BME280;45801;51.810;19.444;2023-12-20T02:11:45;98231.69;;;6.45;84.65
59939;BME280;45801;51.810;19.444;2023-12-20T02:14:12;98235.38;;;6.46;84.66
59939;BME280;45801;51.810;19.444;2023-12-20T02:16:39;98230.96;;;6.48;84.46
59939;BME280;45801;51.810;19.444;2023-12-20T02:19:10;98228.73;;;6.49;84.41
59939;BME280;45801;51.810;19.444;2023-12-20T02:21:39;98229.71;;;6.51;84.30
59939;BME280;45801;51.810;19.444;2023-12-20T02:24:06;98229.00;;;6.55;83.95
59939;BME280;45801;51.810;19.444;2023-12-20T02:26:33;98229.74;;;6.48;84.03
59939;BME280;45801;51.810;19.444;2023-12-20T02:29:00;98226.87;;;6.50;84.02
59939;BME280;45801;51.810;19.444;2023-12-20T02:31:28;98224.05;;;6.49;83.86
59939;BME280;45801;51.810;19.444;2023-12-20T02:33:55;98220.59;;;6.50;83.87
59939;BME280;45801;51.810;19.444;2023-12-20T02:36:21;98223.77;;;6.46;83.93
59939;BME280;45801;51.810;19.444;2023-12-20T02:38:48;98221.49;;;6.50;83.56
59939;BME280;45801;51.810;19.444;2023-12-20T02:41:14;98220.81;;;6.51;83.58
59939;BME280;45801;51.810;19.444;2023-12-20T02:43:43;98216.90;;;6.48;83.58
59939;BME280;45801;51.810;19.444;2023-12-20T02:46:11;98216.48;;;6.47;83.68
59939;BME280;45801;51.810;19.444;2023-12-20T02:48:38;98210.00;;;6.46;83.68
59939;BME280;45801;51.810;19.444;2023-12-20T02:51:05;98207.70;;;6.45;83.75
59939;BME280;45801;51.810;19.444;2023-12-20T02:53:31;98208.12;;;6.51;83.19
59939;BME280;45801;51.810;19.444;2023-12-20T02:55:58;98204.27;;;6.59;82.74
59939;BME280;45801;51.810;19.444;2023-12-20T02:58:24;98206.04;;;6.59;83.13
59939;BME280;45801;51.810;19.444;2023-12-20T03:00:51;98209.30;;;6.54;83.43
59939;BME280;45801;51.810;19.444;2023-12-20T03:03:18;98206.63;;;6.52;83.49
59939;BME280;45801;51.810;19.444;2023-12-20T03:05:45;98201.05;;;6.60;83.04
59939;BME280;45801;51.810;19.444;2023-12-20T03:08:12;98197.01;;;6.59;83.29
59939;BME280;45801;51.810;19.444;2023-12-20T03:10:38;98196.83;;;6.59;83.14
59939;BME280;45801;51.810;19.444;2023-12-20T03:13:05;98196.60;;;6.66;82.85
59939;BME280;45801;51.810;19.444;2023-12-20T03:15:32;98190.43;;;6.69;82.73
59939;BME280;45801;51.810;19.444;2023-12-20T03:17:58;98193.16;;;6.63;83.12
59939;BME280;45801;51.810;19.444;2023-12-20T03:20:25;98190.14;;;6.66;82.78
59939;BME280;45801;51.810;19.444;2023-12-20T03:22:55;98189.23;;;6.65;82.90
59939;BME280;45801;51.810;19.444;2023-12-20T03:25:21;98175.85;;;6.65;82.76
59939;BME280;45801;51.810;19.444;2023-12-20T03:27:48;98166.78;;;6.65;82.73
59939;BME280;45801;51.810;19.444;2023-12-20T03:30:14;98174.36;;;6.63;83.19
59939;BME280;45801;51.810;19.444;2023-12-20T03:32:41;98175.77;;;6.64;82.89
59939;BME280;45801;51.810;19.444;2023-12-20T03:35:16;98173.52;;;6.63;82.95
59939;BME280;45801;51.810;19.444;2023-12-20T03:37:43;98175.52;;;6.62;83.12
59939;BME280;45801;51.810;19.444;2023-12-20T03:40:09;98181.30;;;6.63;82.58
59939;BME280;45801;51.810;19.444;2023-12-20T03:42:36;98179.79;;;6.60;82.72
59939;BME280;45801;51.810;19.444;2023-12-20T03:45:03;98187.34;;;6.53;83.30
59939;BME280;45801;51.810;19.444;2023-12-20T03:47:30;98187.63;;;6.51;83.52
59939;BME280;45801;51.810;19.444;2023-12-20T03:49:56;98185.25;;;6.49;83.51
59939;BME280;45801;51.810;19.444;2023-12-20T03:52:23;98191.58;;;6.54;83.20
59939;BME280;45801;51.810;19.444;2023-12-20T03:54:49;98194.83;;;6.61;82.95
59939;BME280;45801;51.810;19.444;2023-12-20T03:57:19;98191.46;;;6.64;82.78
59939;BME280;45801;51.810;19.444;2023-12-20T03:59:45;98191.98;;;6.68;82.33
59939;BME280;45801;51.810;19.444;2023-12-20T04:02:13;98194.16;;;6.70;82.14
59939;BME280;45801;51.810;19.444;2023-12-20T04:04:40;98197.00;;;6.59;82.57
59939;BME280;45801;51.810;19.444;2023-12-20T04:07:06;98198.13;;;6.61;82.37
59939;BME280;45801;51.810;19.444;2023-12-20T04:09:33;98194.60;;;6.60;82.30
59939;BME280;45801;51.810;19.444;2023-12-20T04:12:00;98192.06;;;6.50;82.25
59939;BME280;45801;51.810;19.444;2023-12-20T04:14:27;98194.04;;;6.43;82.53
59939;BME280;45801;51.810;19.444;2023-12-20T04:16:54;98191.20;;;6.42;82.51
59939;BME280;45801;51.810;19.444;2023-12-20T04:19:21;98191.73;;;6.46;82.54
59939;BME280;45801;51.810;19.444;2023-12-20T04:21:48;98194.29;;;6.45;82.64
59939;BME280;45801;51.810;19.444;2023-12-20T04:24:14;98192.55;;;6.40;82.55
59939;BME280;45801;51.810;19.444;2023-12-20T04:26:41;98188.21;;;6.41;82.52
59939;BME280;45801;51.810;19.444;2023-12-20T04:29:07;98186.67;;;6.33;82.82
59939;BME280;45801;51.810;19.444;2023-12-20T04:31:34;98186.70;;;6.38;82.70
59939;BME280;45801;51.810;19.444;2023-12-20T04:34:02;98188.08;;;6.41;82.34
59939;BME280;45801;51.810;19.444;2023-12-20T04:36:29;98184.92;;;6.46;82.09
59939;BME280;45801;51.810;19.444;2023-12-20T04:38:56;98185.62;;;6.41;82.11
59939;BME280;45801;51.810;19.444;2023-12-20T04:41:22;98179.94;;;6.46;81.80
59939;BME280;45801;51.810;19.444;2023-12-20T04:43:49;98183.77;;;6.43;81.79
59939;BME280;45801;51.810;19.444;2023-12-20T04:46:16;98181.56;;;6.36;81.88
59939;BME280;45801;51.810;19.444;2023-12-20T04:48:43;98175.00;;;6.33;82.12
59939;BME280;45801;51.810;19.444;2023-12-20T04:51:11;98175.45;;;6.35;82.29
59939;BME280;45801;51.810;19.444;2023-12-20T04:53:37;98174.73;;;6.34;82.31
59939;BME280;45801;51.810;19.444;2023-12-20T04:56:04;98171.92;;;6.34;82.00
59939;BME280;45801;51.810;19.444;2023-12-20T04:58:30;98169.55;;;6.35;81.95
59939;BME280;45801;51.810;19.444;2023-12-20T05:00:57;98175.63;;;6.35;82.17
59939;BME280;45801;51.810;19.444;2023-12-20T05:03:26;98173.19;;;6.35;82.11
59939;BME280;45801;51.810;19.444;2023-12-20T05:05:53;98172.13;;;6.39;82.22
59939;BME280;45801;51.810;19.444;2023-12-20T05:08:21;98173.48;;;6.38;82.07
59939;BME280;45801;51.810;19.444;2023-12-20T05:10:48;98173.40;;;6.32;82.18
59939;BME280;45801;51.810;19.444;2023-12-20T05:13:18;98169.60;;;6.37;82.12
59939;BME280;45801;51.810;19.444;2023-12-20T05:15:45;98170.27;;;6.40;81.84
59939;BME280;45801;51.810;19.444;2023-12-20T05:18:13;98170.21;;;6.39;81.98
59939;BME280;45801;51.810;19.444;2023-12-20T05:20:40;98169.44;;;6.37;81.74
59939;BME280;45801;51.810;19.444;2023-12-20T05:23:09;98168.73;;;6.32;82.06
59939;BME280;45801;51.810;19.444;2023-12-20T05:25:36;98170.08;;;6.31;82.35
59939;BME280;45801;51.810;19.444;2023-12-20T05:28:09;98170.02;;;6.34;81.98
59939;BME280;45801;51.810;19.444;2023-12-20T05:30:40;98166.98;;;6.36;81.90
59939;BME280;45801;51.810;19.444;2023-12-20T05:33:07;98168.77;;;6.38;81.57
59939;BME280;45801;51.810;19.444;2023-12-20T05:35:34;98172.23;;;6.37;81.71
59939;BME280;45801;51.810;19.444;2023-12-20T05:38:02;98173.73;;;6.32;81.67
59939;BME280;45801;51.810;19.444;2023-12-20T05:40:29;98178.57;;;6.31;81.70
59939;BME280;45801;51.810;19.444;2023-12-20T05:42:55;98178.29;;;6.32;81.58
59939;BME280;45801;51.810;19.444;2023-12-20T05:45:22;98178.52;;;6.29;81.70
59939;BME280;45801;51.810;19.444;2023-12-20T05:47:49;98183.50;;;6.28;81.93
59939;BME280;45801;51.810;19.444;2023-12-20T05:50:18;98180.95;;;6.29;81.82
59939;BME280;45801;51.810;19.444;2023-12-20T05:52:46;98177.55;;;6.31;82.00
59939;BME280;45801;51.810;19.444;2023-12-20T05:55:13;98177.73;;;6.31;81.59
59939;BME280;45801;51.810;19.444;2023-12-20T05:57:40;98175.87;;;6.29;81.58
59939;BME280;45801;51.810;19.444;2023-12-20T06:00:07;98175.39;;;6.25;82.02
59939;BME280;45801;51.810;19.444;2023-12-20T06:02:34;98171.02;;;6.21;82.53
59939;BME280;45801;51.810;19.444;2023-12-20T06:05:00;98168.02;;;6.16;82.39
59939;BME280;45801;51.810;19.444;2023-12-20T06:07:28;98172.46;;;6.10;82.43
59939;BME280;45801;51.810;19.444;2023-12-20T06:09:54;98167.73;;;6.05;82.51
59939;BME280;45801;51.810;19.444;2023-12-20T06:12:21;98171.63;;;6.03;82.58
59939;BME280;45801;51.810;19.444;2023-12-20T06:14:47;98169.23;;;6.08;82.34
59939;BME280;45801;51.810;19.444;2023-12-20T06:17:14;98166.90;;;6.10;82.18
59939;BME280;45801;51.810;19.444;2023-12-20T06:19:41;98166.11;;;6.16;81.91
59939;BME280;45801;51.810;19.444;2023-12-20T06:22:09;98167.61;;;6.14;81.67
59939;BME280;45801;51.810;19.444;2023-12-20T06:24:35;98166.05;;;6.18;81.64
59939;BME280;45801;51.810;19.444;2023-12-20T06:27:02;98160.44;;;6.21;81.53
59939;BME280;45801;51.810;19.444;2023-12-20T06:29:28;98162.03;;;6.22;81.56
59939;BME280;45801;51.810;19.444;2023-12-20T06:31:55;98154.88;;;6.26;81.37
59939;BME280;45801;51.810;19.444;2023-12-20T06:34:21;98156.00;;;6.27;81.21
59939;BME280;45801;51.810;19.444;2023-12-20T06:36:49;98157.02;;;6.23;81.61
59939;BME280;45801;51.810;19.444;2023-12-20T06:39:16;98159.80;;;6.23;81.61
59939;BME280;45801;51.810;19.444;2023-12-20T06:41:42;98159.13;;;6.23;81.79
59939;BME280;45801;51.810;19.444;2023-12-20T06:44:15;98157.84;;;6.18;81.77
59939;BME280;45801;51.810;19.444;2023-12-20T06:46:44;98157.73;;;6.19;81.54
59939;BME280;45801;51.810;19.444;2023-12-20T06:49:10;98161.02;;;6.19;81.74
59939;BME280;45801;51.810;19.444;2023-12-20T06:51:38;98162.09;;;6.19;82.00
59939;BME280;45801;51.810;19.444;2023-12-20T06:54:05;98164.92;;;6.21;81.98
59939;BME280;45801;51.810;19.444;2023-12-20T06:56:31;98165.59;;;6.24;81.84
59939;BME280;45801;51.810;19.444;2023-12-20T06:58:58;98166.65;;;6.20;81.83
59939;BME280;45801;51.810;19.444;2023-12-20T07:01:25;98165.26;;;6.20;81.87
59939;BME280;45801;51.810;19.444;2023-12-20T07:03:53;98163.61;;;6.22;81.66
59939;BME280;45801;51.810;19.444;2023-12-20T07:06:19;98167.08;;;6.26;81.64
59939;BME280;45801;51.810;19.444;2023-12-20T07:08:47;98165.46;;;6.29;81.33
59939;BME280;45801;51.810;19.444;2023-12-20T07:11:13;98173.73;;;6.27;81.46
59939;BME280;45801;51.810;19.444;2023-12-20T07:13:40;98173.43;;;6.29;81.34
59939;BME280;45801;51.810;19.444;2023-12-20T07:16:06;98171.36;;;6.33;81.26
59939;BME280;45801;51.810;19.444;2023-12-20T07:18:33;98172.29;;;6.34;81.03
59939;BME280;45801;51.810;19.444;2023-12-20T07:21:00;98173.13;;;6.30;81.27
59939;BME280;45801;51.810;19.444;2023-12-20T07:23:26;98175.39;;;6.26;81.24
59939;BME280;45801;51.810;19.444;2023-12-20T07:25:53;98176.42;;;6.25;81.27
59939;BME280;45801;51.810;19.444;2023-12-20T07:28:19;98178.33;;;6.25;81.29
59939;BME280;45801;51.810;19.444;2023-12-20T07:30:46;98180.23;;;6.29;81.29
59939;BME280;45801;51.810;19.444;2023-12-20T07:33:13;98178.98;;;6.32;81.18
59939;BME280;45801;51.810;19.444;2023-12-20T07:35:40;98181.77;;;6.32;81.14
59939;BME280;45801;51.810;19.444;2023-12-20T07:38:06;98178.80;;;6.28;81.19
59939;BME280;45801;51.810;19.444;2023-12-20T07:40:33;98181.79;;;6.29;81.20
59939;BME280;45801;51.810;19.444;2023-12-20T07:42:59;98181.34;;;6.26;81.26
59939;BME280;45801;51.810;19.444;2023-12-20T07:45:26;98178.84;;;6.17;81.96
59939;BME280;45801;51.810;19.444;2023-12-20T07:47:53;98175.56;;;6.17;81.78
59939;BME280;45801;51.810;19.444;2023-12-20T07:50:19;98180.63;;;6.14;82.10
59939;BME280;45801;51.810;19.444;2023-12-20T07:52:46;98179.50;;;6.08;82.07
59939;BME280;45801;51.810;19.444;2023-12-20T07:55:13;98177.89;;;6.11;82.03
59939;BME280;45801;51.810;19.444;2023-12-20T07:57:39;98176.62;;;6.06;82.42
59939;BME280;45801;51.810;19.444;2023-12-20T08:00:06;98179.10;;;6.03;82.67
59939;BME280;45801;51.810;19.444;2023-12-20T08:02:33;98176.90;;;6.04;82.75
59939;BME280;45801;51.810;19.444;2023-12-20T08:05:01;98180.69;;;6.07;82.69
59939;BME280;45801;51.810;19.444;2023-12-20T08:07:27;98178.69;;;6.13;82.34
59939;BME280;45801;51.810;19.444;2023-12-20T08:09:54;98174.39;;;6.18;81.92
59939;BME280;45801;51.810;19.444;2023-12-20T08:12:22;98169.14;;;6.22;81.84
59939;BME280;45801;51.810;19.444;2023-12-20T08:14:49;98164.81;;;6.18;82.32
59939;BME280;45801;51.810;19.444;2023-12-20T08:17:15;98164.10;;;6.17;82.22
59939;BME280;45801;51.810;19.444;2023-12-20T08:19:42;98161.73;;;6.15;82.27
59939;BME280;45801;51.810;19.444;2023-12-20T08:22:09;98163.99;;;6.08;82.61
59939;BME280;45801;51.810;19.444;2023-12-20T08:24:35;98168.08;;;6.09;82.68
59939;BME280;45801;51.810;19.444;2023-12-20T08:27:02;98170.23;;;6.07;82.56
59939;BME280;45801;51.810;19.444;2023-12-20T08:29:29;98169.07;;;6.00;82.94
59939;BME280;45801;51.810;19.444;2023-12-20T08:31:56;98172.19;;;5.89;83.49
59939;BME280;45801;51.810;19.444;2023-12-20T08:34:23;98174.45;;;5.81;84.08
59939;BME280;45801;51.810;19.444;2023-12-20T08:36:50;98171.35;;;5.82;84.10
59939;BME280;45801;51.810;19.444;2023-12-20T08:39:17;98171.33;;;5.85;83.90
59939;BME280;45801;51.810;19.444;2023-12-20T08:41:44;98170.38;;;5.91;83.50
59939;BME280;45801;51.810;19.444;2023-12-20T08:44:10;98166.90;;;5.98;83.37
59939;BME280;45801;51.810;19.444;2023-12-20T08:46:37;98167.02;;;6.04;83.14
59939;BME280;45801;51.810;19.444;2023-12-20T08:49:04;98163.14;;;6.04;83.16
59939;BME280;45801;51.810;19.444;2023-12-20T08:51:31;98159.59;;;6.06;82.73
59939;BME280;45801;51.810;19.444;2023-12-20T08:53:57;98157.41;;;6.11;82.64
59939;BME280;45801;51.810;19.444;2023-12-20T08:56:24;98160.87;;;6.15;82.65
59939;BME280;45801;51.810;19.444;2023-12-20T08:58:50;98160.02;;;6.20;82.48
59939;BME280;45801;51.810;19.444;2023-12-20T09:01:17;98159.73;;;6.13;83.01
59939;BME280;45801;51.810;19.444;2023-12-20T09:03:44;98161.12;;;6.09;83.02
59939;BME280;45801;51.810;19.444;2023-12-20T09:06:10;98159.89;;;6.09;83.26
59939;BME280;45801;51.810;19.444;2023-12-20T09:08:37;98162.69;;;6.01;83.73
59939;BME280;45801;51.810;19.444;2023-12-20T09:11:29;98163.33;;;6.04;83.53
59939;BME280;45801;51.810;19.444;2023-12-20T09:13:56;98159.97;;;6.14;83.62
59939;BME280;45801;51.810;19.444;2023-12-20T09:16:22;98164.32;;;6.18;82.86
59939;BME280;45801;51.810;19.444;2023-12-20T09:18:49;98166.25;;;6.19;82.95
59939;BME280;45801;51.810;19.444;2023-12-20T09:21:16;98164.66;;;6.23;82.88
59939;BME280;45801;51.810;19.444;2023-12-20T09:23:43;98164.97;;;6.22;83.02
59939;BME280;45801;51.810;19.444;2023-12-20T09:26:10;98161.73;;;6.24;82.76
59939;BME280;45801;51.810;19.444;2023-12-20T09:28:36;98160.46;;;6.14;83.13
59939;BME280;45801;51.810;19.444;2023-12-20T09:31:04;98157.41;;;6.08;83.35
59939;BME280;45801;51.810;19.444;2023-12-20T09:33:31;98156.83;;;6.10;83.29
59939;BME280;45801;51.810;19.444;2023-12-20T09:35:58;98161.52;;;6.14;83.26
59939;BME280;45801;51.810;19.444;2023-12-20T09:38:25;98161.52;;;6.22;83.03
59939;BME280;45801;51.810;19.444;2023-12-20T09:40:51;98162.70;;;6.18;83.15
59939;BME280;45801;51.810;19.444;2023-12-20T09:43:19;98160.77;;;6.16;82.78
59939;BME280;45801;51.810;19.444;2023-12-20T09:45:53;98153.54;;;6.15;82.48
59939;BME280;45801;51.810;19.444;2023-12-20T09:48:20;98154.86;;;6.13;82.62
59939;BME280;45801;51.810;19.444;2023-12-20T09:50:46;98151.51;;;6.12;82.91
59939;BME280;45801;51.810;19.444;2023-12-20T09:53:15;98150.26;;;5.99;83.44
59939;BME280;45801;51.810;19.444;2023-12-20T09:55:42;98143.78;;;5.95;83.59
59939;BME280;45801;51.810;19.444;2023-12-20T09:58:09;98139.95;;;5.91;83.58
59939;BME280;45801;51.810;19.444;2023-12-20T10:00:35;98134.13;;;5.96;83.65
59939;BME280;45801;51.810;19.444;2023-12-20T10:03:03;98130.05;;;6.02;82.90
59939;BME280;45801;51.810;19.444;2023-12-20T10:05:33;98132.83;;;6.02;82.42
59939;BME280;45801;51.810;19.444;2023-12-20T10:08:00;98132.65;;;5.94;82.24
59939;BME280;45801;51.810;19.444;2023-12-20T10:10:27;98125.86;;;5.98;82.42
59939;BME280;45801;51.810;19.444;2023-12-20T10:13:07;98128.69;;;5.95;82.49
59939;BME280;45801;51.810;19.444;2023-12-20T10:15:36;98130.23;;;5.91;82.46
59939;BME280;45801;51.810;19.444;2023-12-20T10:18:03;98126.75;;;5.83;82.68
59939;BME280;45801;51.810;19.444;2023-12-20T10:20:31;98121.44;;;5.77;83.15
59939;BME280;45801;51.810;19.444;2023-12-20T10:22:58;98121.83;;;5.70;83.39
59939;BME280;45801;51.810;19.444;2023-12-20T10:25:25;98120.94;;;5.69;83.58
59939;BME280;45801;51.810;19.444;2023-12-20T10:28:11;98123.70;;;5.77;83.25
59939;BME280;45801;51.810;19.444;2023-12-20T10:30:39;98118.84;;;5.85;83.28
59939;BME280;45801;51.810;19.444;2023-12-20T10:33:07;98116.52;;;5.95;82.71
59939;BME280;45801;51.810;19.444;2023-12-20T10:35:37;98114.77;;;5.95;82.76
59939;BME280;45801;51.810;19.444;2023-12-20T10:38:05;98111.11;;;5.95;82.81
59939;BME280;45801;51.810;19.444;2023-12-20T10:40:36;98114.84;;;5.89;83.66
59939;BME280;45801;51.810;19.444;2023-12-20T10:43:03;98118.50;;;5.85;83.97
59939;BME280;45801;51.810;19.444;2023-12-20T10:45:30;98115.56;;;5.81;84.04
59939;BME280;45801;51.810;19.444;2023-12-20T10:47:57;98111.17;;;5.84;83.32
59939;BME280;45801;51.810;19.444;2023-12-20T10:50:27;98109.48;;;5.86;82.92
59939;BME280;45801;51.810;19.444;2023-12-20T10:52:55;98114.80;;;5.88;83.00
59939;BME280;45801;51.810;19.444;2023-12-20T10:55:22;98114.29;;;5.84;83.30
59939;BME280;45801;51.810;19.444;2023-12-20T10:57:54;98116.27;;;5.85;83.25
59939;BME280;45801;51.810;19.444;2023-12-20T11:00:23;98109.54;;;5.91;82.67
59939;BME280;45801;51.810;19.444;2023-12-20T11:02:50;98104.64;;;5.90;82.91
59939;BME280;45801;51.810;19.444;2023-12-20T11:08:03;98103.60;;;5.94;82.14
59939;BME280;45801;51.810;19.444;2023-12-20T11:13:10;98099.70;;;5.92;82.18
59939;BME280;45801;51.810;19.444;2023-12-20T11:15:38;98100.77;;;5.93;82.20
59939;BME280;45801;51.810;19.444;2023-12-20T11:18:05;98099.52;;;5.88;82.53
59939;BME280;45801;51.810;19.444;2023-12-20T11:20:37;98095.28;;;5.91;82.23
59939;BME280;45801;51.810;19.444;2023-12-20T11:23:04;98089.36;;;5.79;82.78
59939;BME280;45801;51.810;19.444;2023-12-20T11:25:54;98086.46;;;5.79;83.30
59939;BME280;45801;51.810;19.444;2023-12-20T11:28:21;98082.20;;;5.73;83.59
59939;BME280;45801;51.810;19.444;2023-12-20T11:30:51;98081.21;;;5.74;83.67
59939;BME280;45801;51.810;19.444;2023-12-20T11:33:37;98079.24;;;5.65;83.85
59939;BME280;45801;51.810;19.444;2023-12-20T11:36:13;98081.55;;;5.74;83.56
59939;BME280;45801;51.810;19.444;2023-12-20T11:38:56;98084.73;;;5.68;83.23
59939;BME280;45801;51.810;19.444;2023-12-20T11:41:24;98079.88;;;5.64;83.63
59939;BME280;45801;51.810;19.444;2023-12-20T11:43:53;98077.84;;;5.65;84.28
59939;BME280;45801;51.810;19.444;2023-12-20T11:46:20;98077.19;;;5.66;83.62
59939;BME280;45801;51.810;19.444;2023-12-20T11:48:47;98077.83;;;5.61;83.39
59939;BME280;45801;51.810;19.444;2023-12-20T11:51:14;98078.83;;;5.68;83.31
59939;BME280;45801;51.810;19.444;2023-12-20T11:53:41;98073.05;;;5.63;83.13
59939;BME280;45801;51.810;19.444;2023-12-20T11:56:09;98069.95;;;5.64;83.33
59939;BME280;45801;51.810;19.444;2023-12-20T11:58:36;98068.77;;;5.60;83.72
59939;BME280;45801;51.810;19.444;2023-12-20T12:01:04;98063.25;;;5.61;83.40
59939;BME280;45801;51.810;19.444;2023-12-20T12:03:33;98060.64;;;5.57;83.89
59939;BME280;45801;51.810;19.444;2023-12-20T12:06:00;98061.30;;;5.53;83.83
59939;BME280;45801;51.810;19.444;2023-12-20T12:08:27;98056.98;;;5.53;84.06
59939;BME280;45801;51.810;19.444;2023-12-20T12:10:53;98058.34;;;5.56;83.76
59939;BME280;45801;51.810;19.444;2023-12-20T12:13:20;98059.02;;;5.60;82.40
59939;BME280;45801;51.810;19.444;2023-12-20T12:15:48;98058.44;;;5.62;82.21
59939;BME280;45801;51.810;19.444;2023-12-20T12:18:17;98058.75;;;5.65;81.64
59939;BME280;45801;51.810;19.444;2023-12-20T12:20:44;98055.69;;;5.67;81.65
59939;BME280;45801;51.810;19.444;2023-12-20T12:23:12;98054.52;;;5.60;82.03
59939;BME280;45801;51.810;19.444;2023-12-20T12:25:38;98051.81;;;5.54;81.18
59939;BME280;45801;51.810;19.444;2023-12-20T12:28:05;98050.55;;;5.57;81.18
59939;BME280;45801;51.810;19.444;2023-12-20T12:30:31;98043.06;;;5.60;80.30
59939;BME280;45801;51.810;19.444;2023-12-20T12:32:59;98040.40;;;5.59;79.83
59939;BME280;45801;51.810;19.444;2023-12-20T12:35:27;98038.48;;;5.59;79.51
59939;BME280;45801;51.810;19.444;2023-12-20T12:37:53;98035.32;;;5.62;79.39
59939;BME280;45801;51.810;19.444;2023-12-20T12:40:20;98038.04;;;5.61;78.42
59939;BME280;45801;51.810;19.444;2023-12-20T12:42:46;98040.70;;;5.58;78.44
59939;BME280;45801;51.810;19.444;2023-12-20T12:45:13;98041.44;;;5.55;78.41
59939;BME280;45801;51.810;19.444;2023-12-20T12:47:40;98036.40;;;5.51;78.13
59939;BME280;45801;51.810;19.444;2023-12-20T12:50:07;98028.58;;;5.46;77.88
59939;BME280;45801;51.810;19.444;2023-12-20T12:52:33;98024.73;;;5.46;78.26
59939;BME280;45801;51.810;19.444;2023-12-20T12:54:59;98019.83;;;5.41;78.39
59939;BME280;45801;51.810;19.444;2023-12-20T12:57:26;98009.68;;;5.47;78.62
59939;BME280;45801;51.810;19.444;2023-12-20T12:59:53;98009.80;;;5.50;78.41
59939;BME280;45801;51.810;19.444;2023-12-20T13:02:19;98012.13;;;5.52;78.43
59939;BME280;45801;51.810;19.444;2023-12-20T13:04:46;98014.64;;;5.50;78.90
59939;BME280;45801;51.810;19.444;2023-12-20T13:07:12;98018.84;;;5.46;79.19